createdAt,value
2019-02-10T00:00:11.942Z,22.70
2019-02-10T00:02:43.347Z,23.43
2019-02-10T00:05:13.144Z,23.63
2019-02-10T00:07:44.762Z,21.23
2019-02-10T00:10:13.705Z,19.83
2019-02-10T00:13:25.343Z,20.37
2019-02-10T00:15:54.457Z,18.40
2019-02-10T00:18:24.252Z,17.43
2019-02-10T00:20:54.766Z,18.43
2019-02-10T00:23:25.526Z,18.63
2019-02-10T00:25:57.198Z,19.80
2019-02-10T00:28:26.842Z,21.50
2019-02-10T00:30:57.242Z,19.37
2019-02-10T00:33:28.832Z,20.33
2019-02-10T00:36:00.066Z,20.43
2019-02-10T00:38:30.202Z,18.30
2019-02-10T00:41:00.731Z,20.67
2019-02-10T00:43:32.964Z,20.53
2019-02-10T00:46:02.740Z,18.17
2019-02-10T00:48:32.639Z,19.17
2019-02-10T00:51:04.343Z,18.43
2019-02-10T00:53:34.529Z,17.40
2019-02-10T00:56:04.615Z,17.93
2019-02-10T00:58:34.779Z,16.60
2019-02-10T01:01:04.956Z,16.70
2019-02-10T01:03:34.337Z,17.00
2019-02-10T01:06:04.802Z,17.10
2019-02-10T01:08:34.739Z,16.50
2019-02-10T01:11:04.717Z,18.63
2019-02-10T01:13:36.232Z,17.87
2019-02-10T01:16:07.119Z,17.60
2019-02-10T01:18:37.731Z,18.87
2019-02-10T01:21:06.741Z,19.13
2019-02-10T01:23:37.199Z,19.80
2019-02-10T01:26:07.689Z,18.83
2019-02-10T01:28:38.794Z,18.00
2019-02-10T01:31:09.567Z,18.23
2019-02-10T01:33:40.366Z,17.70
2019-02-10T01:36:10.835Z,18.00
2019-02-10T01:38:41.675Z,19.60
2019-02-10T01:41:11.761Z,20.13
2019-02-10T01:43:42.454Z,21.00
2019-02-10T01:46:13.599Z,19.67
2019-02-10T01:48:43.886Z,19.73
2019-02-10T01:51:14.679Z,20.10
2019-02-10T01:53:45.609Z,20.33
2019-02-10T01:56:16.176Z,20.37
2019-02-10T01:58:47.597Z,20.63
2019-02-10T02:01:18.077Z,20.50
2019-02-10T02:03:47.934Z,20.53
2019-02-10T02:06:19.686Z,20.10
2019-02-10T02:08:49.960Z,20.40
2019-02-10T02:11:25.009Z,20.13
2019-02-10T02:13:55.524Z,19.00
2019-02-10T02:16:25.988Z,19.27
2019-02-10T02:18:55.750Z,19.27
2019-02-10T02:21:25.772Z,21.50
2019-02-10T02:23:55.962Z,19.97
2019-02-10T02:26:26.402Z,21.60
2019-02-10T02:28:55.936Z,20.53
2019-02-10T02:31:26.197Z,22.40
2019-02-10T02:33:56.644Z,21.03
2019-02-10T02:36:25.856Z,21.70
2019-02-10T02:38:59.261Z,22.47
2019-02-10T02:41:29.897Z,20.03
2019-02-10T02:44:00.367Z,18.63
2019-02-10T02:46:32.274Z,18.03
2019-02-10T02:49:01.888Z,17.57
2019-02-10T02:51:32.121Z,16.87
2019-02-10T02:54:02.706Z,16.93
2019-02-10T02:56:33.403Z,17.50
2019-02-10T02:59:04.186Z,16.63
2019-02-10T03:01:33.954Z,17.10
2019-02-10T03:04:03.480Z,15.90
2019-02-10T03:06:45.885Z,15.53
2019-02-10T03:09:19.812Z,15.00
2019-02-10T03:11:49.421Z,15.97
2019-02-10T03:14:19.499Z,16.13
2019-02-10T03:16:51.004Z,16.60
2019-02-10T03:19:20.661Z,16.43
2019-02-10T03:21:51.563Z,15.27
2019-02-10T03:24:23.681Z,15.73
2019-02-10T03:26:54.292Z,19.60
2019-02-10T03:29:23.975Z,17.70
2019-02-10T03:31:54.653Z,19.03
2019-02-10T03:34:24.989Z,17.20
2019-02-10T03:36:56.092Z,16.30
2019-02-10T03:39:26.043Z,15.63
2019-02-10T03:41:57.777Z,17.03
2019-02-10T03:44:27.095Z,17.53
2019-02-10T03:46:56.810Z,17.53
2019-02-10T03:49:28.256Z,17.17
2019-02-10T03:51:58.428Z,15.87
2019-02-10T03:54:30.630Z,19.70
2019-02-10T03:57:00.543Z,17.13
2019-02-10T03:59:30.771Z,15.70
2019-02-10T04:01:59.833Z,17.87
2019-02-10T04:04:29.641Z,17.80
2019-02-10T04:06:59.350Z,17.67
2019-02-10T04:09:29.836Z,17.90
2019-02-10T04:11:59.099Z,18.47
2019-02-10T04:14:32.908Z,18.60
2019-02-10T04:17:02.701Z,17.33
2019-02-10T04:19:31.897Z,18.37
2019-02-10T04:22:02.025Z,16.13
2019-02-10T04:24:33.127Z,17.27
2019-02-10T04:27:02.374Z,17.73
2019-02-10T04:29:33.099Z,17.50
2019-02-10T04:32:03.170Z,17.13
2019-02-10T04:34:33.250Z,18.07
2019-02-10T04:37:02.809Z,17.87
2019-02-10T04:39:34.688Z,16.10
2019-02-10T04:42:05.047Z,17.77
2019-02-10T04:44:35.062Z,19.47
2019-02-10T04:47:07.484Z,18.17
2019-02-10T04:49:39.675Z,18.40
2019-02-10T04:52:10.402Z,18.40
2019-02-10T04:54:41.297Z,19.93
2019-02-10T04:57:12.731Z,18.13
2019-02-10T04:59:44.657Z,19.33
2019-02-10T05:02:15.479Z,19.43
2019-02-10T05:04:46.976Z,18.67
2019-02-10T05:07:18.020Z,18.57
2019-02-10T05:09:48.937Z,18.03
2019-02-10T05:12:20.378Z,18.60
2019-02-10T05:14:51.998Z,16.57
2019-02-10T05:17:23.117Z,18.80
2019-02-10T05:19:53.491Z,17.80
2019-02-10T05:22:25.143Z,18.77
2019-02-10T05:24:55.720Z,19.07
2019-02-10T05:27:26.264Z,18.43
2019-02-10T05:29:57.149Z,18.43
2019-02-10T05:32:28.576Z,17.57
2019-02-10T05:34:59.922Z,18.13
2019-02-10T05:37:31.135Z,17.07
2019-02-10T05:40:01.693Z,16.77
2019-02-10T05:42:33.187Z,16.83
2019-02-10T05:45:04.080Z,17.83
2019-02-10T05:47:33.130Z,17.57
2019-02-10T05:50:03.097Z,17.83
2019-02-10T05:52:33.369Z,16.80
2019-02-10T05:55:04.309Z,17.80
2019-02-10T05:57:34.964Z,17.43
2019-02-10T06:00:05.379Z,17.60
2019-02-10T06:02:35.942Z,17.90
2019-02-10T06:05:19.243Z,18.53
2019-02-10T06:07:49.349Z,17.43
2019-02-10T06:10:20.787Z,17.73
2019-02-10T06:12:50.638Z,16.87
2019-02-10T06:15:19.829Z,17.07
2019-02-10T06:17:49.458Z,17.50
2019-02-10T06:20:19.024Z,17.50
2019-02-10T06:22:49.792Z,16.77
2019-02-10T06:25:19.613Z,18.13
2019-02-10T06:27:49.118Z,15.60
2019-02-10T06:30:19.163Z,17.33
2019-02-10T06:32:50.387Z,16.63
2019-02-10T06:35:19.651Z,19.40
2019-02-10T06:37:50.663Z,19.17
2019-02-10T06:40:21.801Z,19.27
2019-02-10T06:42:51.797Z,19.03
2019-02-10T06:45:21.107Z,20.47
2019-02-10T06:47:51.232Z,19.77
2019-02-10T06:50:22.572Z,19.37
2019-02-10T06:52:53.520Z,19.03
2019-02-10T06:55:23.446Z,19.47
2019-02-10T06:57:54.637Z,19.23
2019-02-10T07:00:57.836Z,18.97
2019-02-10T07:04:04.032Z,19.77
2019-02-10T07:06:33.264Z,18.00
2019-02-10T07:09:05.212Z,18.37
2019-02-10T07:11:35.094Z,17.87
2019-02-10T07:14:17.603Z,17.97
2019-02-10T07:17:28.179Z,17.30
2019-02-10T07:20:56.289Z,18.53
2019-02-10T07:24:14.892Z,17.67
2019-02-10T07:27:22.823Z,17.60
2019-02-10T07:30:47.028Z,17.63
2019-02-10T07:34:09.372Z,16.17
2019-02-10T07:37:49.022Z,15.13
2019-02-10T07:41:16.982Z,14.00
2019-02-10T07:44:19.365Z,12.70
2019-02-10T07:48:11.084Z,16.90
2019-02-10T07:51:17.264Z,15.20
2019-02-10T07:54:52.534Z,11.83
2019-02-10T07:58:31.019Z,12.00
2019-02-10T08:01:59.427Z,13.20
2019-02-10T08:05:24.892Z,12.90
2019-02-10T08:08:46.744Z,12.00
2019-02-10T08:12:06.195Z,10.90
2019-02-10T08:15:29.475Z,9.40
2019-02-10T08:18:51.611Z,9.33
2019-02-10T08:22:30.305Z,9.00
2019-02-10T08:25:53.298Z,6.93
2019-02-10T08:29:07.879Z,7.53
2019-02-10T08:32:40.730Z,6.50
2019-02-10T08:36:06.549Z,6.37
2019-02-10T08:39:12.404Z,6.50
2019-02-10T08:42:27.544Z,5.33
2019-02-10T08:45:09.089Z,5.87
2019-02-10T08:48:17.472Z,5.20
2019-02-10T08:51:33.038Z,5.13
2019-02-10T08:54:03.607Z,4.43
2019-02-10T08:56:33.678Z,3.97
2019-02-10T08:59:03.405Z,3.33
2019-02-10T09:01:33.870Z,3.17
2019-02-10T09:04:03.001Z,3.30
2019-02-10T09:06:32.464Z,3.80
2019-02-10T09:09:04.279Z,3.50
2019-02-10T09:11:34.442Z,3.80
2019-02-10T09:14:07.244Z,2.63
2019-02-10T09:16:38.687Z,3.40
2019-02-10T09:19:08.278Z,2.83
2019-02-10T09:21:38.152Z,3.47
2019-02-10T09:24:08.822Z,3.10
2019-02-10T09:26:38.991Z,4.77
2019-02-10T09:29:09.612Z,4.00
2019-02-10T09:31:40.175Z,3.13
2019-02-10T09:34:10.190Z,2.63
2019-02-10T09:36:41.814Z,3.23
2019-02-10T09:39:14.605Z,2.97
2019-02-10T09:41:45.877Z,2.87
2019-02-10T09:44:19.464Z,2.70
2019-02-10T09:46:49.869Z,2.60
2019-02-10T09:49:20.682Z,2.60
2019-02-10T09:51:51.652Z,2.67
2019-02-10T09:54:21.455Z,3.00
2019-02-10T09:56:51.263Z,3.00
2019-02-10T09:59:22.676Z,3.10
2019-02-10T10:01:55.757Z,3.43
2019-02-10T10:04:27.882Z,2.90
2019-02-10T10:06:58.889Z,2.80
2019-02-10T10:09:30.637Z,2.93
2019-02-10T10:12:01.884Z,2.57
2019-02-10T10:14:34.821Z,3.20
2019-02-10T10:17:04.897Z,2.70
2019-02-10T10:19:36.919Z,3.37
2019-02-10T10:22:09.477Z,3.23
2019-02-10T10:24:39.933Z,5.37
2019-02-10T10:27:10.679Z,3.33
2019-02-10T10:29:40.418Z,3.13
2019-02-10T10:32:10.972Z,3.63
2019-02-10T10:34:41.866Z,3.47
2019-02-10T10:37:13.010Z,2.87
2019-02-10T10:39:43.291Z,2.90
2019-02-10T10:42:18.257Z,3.00
2019-02-10T10:44:48.537Z,3.17
2019-02-10T10:47:19.497Z,3.90
2019-02-10T10:49:52.219Z,2.93
2019-02-10T10:52:23.932Z,2.87
2019-02-10T10:54:53.512Z,3.80
2019-02-10T10:57:25.100Z,4.93
2019-02-10T10:59:56.498Z,4.43
2019-02-10T11:02:26.084Z,2.80
2019-02-10T11:04:58.995Z,2.90
2019-02-10T11:07:29.202Z,4.13
2019-02-10T11:10:00.873Z,2.50
2019-02-10T11:12:35.742Z,3.20
2019-02-10T11:15:08.179Z,2.30
2019-02-10T11:17:39.612Z,2.27
2019-02-10T11:20:10.094Z,2.57
2019-02-10T11:22:42.147Z,2.67
2019-02-10T11:25:13.614Z,3.53
2019-02-10T11:27:43.132Z,3.70
2019-02-10T11:30:12.759Z,3.10
2019-02-10T11:32:42.999Z,4.23
2019-02-10T11:35:13.477Z,3.03
2019-02-10T11:37:44.670Z,3.20
2019-02-10T11:40:14.454Z,2.93
2019-02-10T11:42:44.717Z,2.53
2019-02-10T11:45:15.800Z,2.37
2019-02-10T11:47:45.849Z,3.40
2019-02-10T11:50:16.434Z,3.07
2019-02-10T11:52:46.739Z,3.10
2019-02-10T11:55:17.877Z,2.77
2019-02-10T11:57:48.300Z,2.50
2019-02-10T12:00:19.345Z,3.20
2019-02-10T12:02:49.370Z,2.93
2019-02-10T12:05:21.042Z,2.57
2019-02-10T12:07:52.684Z,2.97
2019-02-10T12:10:23.321Z,2.70
2019-02-10T12:12:52.577Z,2.87
2019-02-10T12:15:22.972Z,2.23
2019-02-10T12:17:53.232Z,2.10
2019-02-10T12:20:22.937Z,2.40
2019-02-10T12:22:54.518Z,2.80
2019-02-10T12:25:24.853Z,2.20
2019-02-10T12:27:54.816Z,2.63
2019-02-10T12:30:24.734Z,3.40
2019-02-10T12:32:55.459Z,2.30
2019-02-10T12:35:25.108Z,1.87
2019-02-10T12:37:56.401Z,2.40
2019-02-10T12:40:26.379Z,2.77
2019-02-10T12:42:56.245Z,3.03
2019-02-10T12:45:27.060Z,3.10
2019-02-10T12:47:57.595Z,2.23
2019-02-10T12:50:28.079Z,2.47
2019-02-10T12:53:00.722Z,2.97
2019-02-10T12:55:31.362Z,2.53
2019-02-10T12:58:03.187Z,2.50
2019-02-10T13:00:34.619Z,3.30
2019-02-10T13:03:04.827Z,3.23
2019-02-10T13:05:36.463Z,2.77
2019-02-10T13:08:08.055Z,3.17
2019-02-10T13:10:39.619Z,3.00
2019-02-10T13:13:19.136Z,2.80
2019-02-10T13:15:44.605Z,3.63
2019-02-10T13:18:14.859Z,3.13
2019-02-10T13:20:44.812Z,3.63
2019-02-10T13:23:16.584Z,3.40
2019-02-10T13:25:48.374Z,3.20
2019-02-10T13:28:19.028Z,3.37
2019-02-10T13:30:49.405Z,3.70
2019-02-10T13:33:19.011Z,3.40
2019-02-10T13:35:49.430Z,3.10
2019-02-10T13:38:20.689Z,4.87
2019-02-10T13:40:50.935Z,6.43
2019-02-10T13:43:21.574Z,3.70
2019-02-10T13:45:54.352Z,3.00
2019-02-10T13:48:25.360Z,2.87
2019-02-10T13:50:54.867Z,3.60
2019-02-10T13:53:25.148Z,4.07
2019-02-10T13:55:54.543Z,4.23
2019-02-10T13:58:25.392Z,5.57
2019-02-10T14:00:57.456Z,4.10
2019-02-10T14:03:29.797Z,5.80
2019-02-10T14:06:01.074Z,3.87
2019-02-10T14:08:34.963Z,3.97
2019-02-10T14:11:04.930Z,4.03
2019-02-10T14:13:36.442Z,3.60
2019-02-10T14:16:07.807Z,3.67
2019-02-10T14:18:38.467Z,4.07
2019-02-10T14:21:10.907Z,3.50
2019-02-10T14:23:41.248Z,2.97
2019-02-10T14:26:11.330Z,3.73
2019-02-10T14:28:41.583Z,3.63
2019-02-10T14:31:13.795Z,3.67
2019-02-10T14:33:48.782Z,3.97
2019-02-10T14:36:21.465Z,3.60
2019-02-10T14:38:52.792Z,4.00
2019-02-10T14:41:24.225Z,4.40
2019-02-10T14:43:56.284Z,3.57
2019-02-10T14:46:25.730Z,3.80
2019-02-10T14:49:02.157Z,3.43
2019-02-10T14:51:31.346Z,4.40
2019-02-10T14:54:00.894Z,2.60
2019-02-10T14:56:32.749Z,3.43
2019-02-10T14:59:06.756Z,3.77
2019-02-10T15:01:37.307Z,4.23
2019-02-10T15:04:08.899Z,2.87
2019-02-10T15:06:38.575Z,3.30
2019-02-10T15:09:11.706Z,3.10
2019-02-10T15:11:41.657Z,3.37
2019-02-10T15:14:12.648Z,3.87
2019-02-10T15:16:44.755Z,2.70
2019-02-10T15:19:14.907Z,2.83
2019-02-10T15:21:46.932Z,3.03
2019-02-10T15:24:18.115Z,3.57
2019-02-10T15:26:48.607Z,2.90
2019-02-10T15:29:20.598Z,2.90
2019-02-10T15:31:50.826Z,2.80
2019-02-10T15:34:22.955Z,5.67
2019-02-10T15:36:52.856Z,2.90
2019-02-10T15:39:25.918Z,3.03
2019-02-10T15:41:56.090Z,3.70
2019-02-10T15:44:25.360Z,3.70
2019-02-10T15:46:57.225Z,3.83
2019-02-10T15:49:28.040Z,3.27
2019-02-10T15:51:58.266Z,3.83
2019-02-10T15:54:28.902Z,3.30
2019-02-10T15:56:59.281Z,3.60
2019-02-10T15:59:30.095Z,3.33
2019-02-10T16:02:01.398Z,3.33
2019-02-10T16:04:32.372Z,2.80
2019-02-10T16:07:06.315Z,3.73
2019-02-10T16:09:38.276Z,4.20
2019-02-10T16:12:09.377Z,8.70
2019-02-10T16:14:42.714Z,3.10
2019-02-10T16:17:13.016Z,3.20
2019-02-10T16:19:44.062Z,3.80
2019-02-10T16:22:14.700Z,3.60
2019-02-10T16:24:44.374Z,4.57
2019-02-10T16:27:14.238Z,3.77
2019-02-10T16:29:44.515Z,4.23
2019-02-10T16:32:15.187Z,3.33
2019-02-10T16:34:46.372Z,3.80
2019-02-10T16:37:15.884Z,3.10
2019-02-10T16:39:45.329Z,3.33
2019-02-10T16:42:16.079Z,3.77
2019-02-10T16:44:46.953Z,3.33
2019-02-10T16:47:18.364Z,3.90
2019-02-10T16:49:47.518Z,3.73
2019-02-10T16:52:17.802Z,3.53
2019-02-10T16:54:49.282Z,6.23
2019-02-10T16:57:18.709Z,4.20
2019-02-10T16:59:49.085Z,4.53
2019-02-10T17:02:20.222Z,3.77
2019-02-10T17:04:49.877Z,3.70
2019-02-10T17:07:19.619Z,4.20
2019-02-10T17:09:49.857Z,3.40
2019-02-10T17:12:19.497Z,3.73
2019-02-10T17:14:52.701Z,3.60
2019-02-10T17:17:26.566Z,4.13
2019-02-10T17:19:57.306Z,4.43
2019-02-10T17:22:28.608Z,4.00
2019-02-10T17:25:00.440Z,4.10
2019-02-10T17:27:30.270Z,4.10
2019-02-10T17:30:02.122Z,3.83
2019-02-10T17:32:33.166Z,3.93
2019-02-10T17:35:04.957Z,3.43
2019-02-10T17:37:34.394Z,3.90
2019-02-10T17:40:07.266Z,4.10
2019-02-10T17:42:37.567Z,3.63
2019-02-10T17:45:26.442Z,4.10
2019-02-10T17:47:58.010Z,3.43
2019-02-10T17:50:31.748Z,4.30
2019-02-10T17:53:02.084Z,4.57
2019-02-10T17:55:32.197Z,4.33
2019-02-10T17:58:02.687Z,4.63
2019-02-10T18:00:37.660Z,4.30
2019-02-10T18:03:07.420Z,5.30
2019-02-10T18:05:39.847Z,4.43
2019-02-10T18:08:10.842Z,5.13
2019-02-10T18:10:40.457Z,3.83
2019-02-10T18:13:11.388Z,4.17
2019-02-10T18:16:18.850Z,4.60
2019-02-10T18:19:04.187Z,4.40
2019-02-10T18:22:10.024Z,4.00
2019-02-10T18:24:56.945Z,4.50
2019-02-10T18:27:49.537Z,4.13
2019-02-10T18:30:41.930Z,5.43
2019-02-10T18:33:37.295Z,5.17
2019-02-10T18:36:15.527Z,4.23
2019-02-10T18:39:05.757Z,5.27
2019-02-10T18:41:58.202Z,5.30
2019-02-10T18:44:57.917Z,5.00
2019-02-10T18:47:52.996Z,4.43
2019-02-10T18:50:42.132Z,4.07
2019-02-10T18:53:36.923Z,4.63
2019-02-10T18:56:37.810Z,5.27
2019-02-10T18:59:36.740Z,4.70
2019-02-10T19:02:28.594Z,4.70
2019-02-10T19:05:27.414Z,5.20
2019-02-10T19:08:04.219Z,4.80
2019-02-10T19:10:59.661Z,5.10
2019-02-10T19:13:47.951Z,4.57
2019-02-10T19:16:33.019Z,5.47
2019-02-10T19:19:21.540Z,5.33
2019-02-10T19:22:02.165Z,3.93
2019-02-10T19:24:49.764Z,4.50
2019-02-10T19:27:38.712Z,4.57
2019-02-10T19:30:26.562Z,4.70
2019-02-10T19:33:14.825Z,4.43
2019-02-10T19:35:57.670Z,4.90
2019-02-10T19:38:55.252Z,4.47
2019-02-10T19:41:40.649Z,4.73
2019-02-10T19:44:32.742Z,4.93
2019-02-10T19:47:24.847Z,4.73
2019-02-10T19:50:12.920Z,5.10
2019-02-10T19:53:12.829Z,4.73
2019-02-10T19:55:56.890Z,3.57
2019-02-10T19:58:51.934Z,5.53
2019-02-10T20:01:34.992Z,4.67
2019-02-10T20:04:43.731Z,5.63
2019-02-10T20:07:33.615Z,4.80
2019-02-10T20:10:36.354Z,5.20
2019-02-10T20:13:42.490Z,5.47
2019-02-10T20:16:34.027Z,5.33
2019-02-10T20:19:27.117Z,4.57
2019-02-10T20:22:31.501Z,9.20
2019-02-10T20:25:35.692Z,4.40
2019-02-10T20:28:44.562Z,4.30
2019-02-10T20:31:43.306Z,5.17
2019-02-10T20:34:30.628Z,4.13
2019-02-10T20:37:19.725Z,5.00
2019-02-10T20:40:19.870Z,3.80
2019-02-10T20:43:12.502Z,4.03
2019-02-10T20:46:14.579Z,5.40
2019-02-10T20:49:12.172Z,4.53
2019-02-10T20:52:01.893Z,4.80
2019-02-10T20:54:52.057Z,4.87
2019-02-10T20:57:54.290Z,4.43
2019-02-10T21:00:47.724Z,4.63
2019-02-10T21:03:47.803Z,4.50
2019-02-10T21:06:37.507Z,4.90
2019-02-10T21:09:16.299Z,4.00
2019-02-10T21:12:05.980Z,3.67
2019-02-10T21:14:59.532Z,4.40
2019-02-10T21:17:48.810Z,3.77
2019-02-10T21:20:39.077Z,5.13
2019-02-10T21:23:28.604Z,3.90
2019-02-10T21:26:18.972Z,3.67
2019-02-10T21:29:25.583Z,4.67
2019-02-10T21:32:17.417Z,3.60
2019-02-10T21:35:11.310Z,4.03
2019-02-10T21:38:02.457Z,3.67
2019-02-10T21:40:54.512Z,5.03
2019-02-10T21:43:39.217Z,4.60
2019-02-10T21:46:21.689Z,3.67
2019-02-10T21:49:01.561Z,4.13
2019-02-10T21:51:31.459Z,4.63
2019-02-10T21:54:05.570Z,3.73
2019-02-10T21:56:38.672Z,4.30
2019-02-10T21:59:12.066Z,3.77
2019-02-10T22:01:43.649Z,4.30
2019-02-10T22:04:13.879Z,4.30
2019-02-10T22:06:45.124Z,3.93
2019-02-10T22:09:14.331Z,4.13
2019-02-10T22:11:47.784Z,4.27
2019-02-10T22:14:21.646Z,4.57
2019-02-10T22:16:53.659Z,4.50
2019-02-10T22:19:25.767Z,4.43
2019-02-10T22:21:56.097Z,3.50
2019-02-10T22:24:27.066Z,3.73
2019-02-10T22:26:55.945Z,4.83
2019-02-10T22:29:28.544Z,3.73
2019-02-10T22:31:59.385Z,4.40
2019-02-10T22:34:32.471Z,3.73
2019-02-10T22:37:02.094Z,3.73
2019-02-10T22:39:31.850Z,3.83
2019-02-10T22:42:02.282Z,3.77
2019-02-10T22:44:40.469Z,4.13
2019-02-10T22:47:11.864Z,3.70
2019-02-10T22:49:43.950Z,4.00
2019-02-10T22:52:16.830Z,3.23
2019-02-10T22:54:46.956Z,3.43
2019-02-10T22:57:20.534Z,4.20
2019-02-10T22:59:54.232Z,3.43
2019-02-10T23:02:26.169Z,3.53
2019-02-10T23:04:55.924Z,4.00
2019-02-10T23:07:29.424Z,3.77
2019-02-10T23:10:01.089Z,3.60
2019-02-10T23:12:33.558Z,3.57
2019-02-10T23:15:04.237Z,4.53
2019-02-10T23:17:34.802Z,4.20
2019-02-10T23:20:05.568Z,4.13
2019-02-10T23:22:35.918Z,4.10
2019-02-10T23:25:06.898Z,4.00
2019-02-10T23:27:38.339Z,4.17
2019-02-10T23:30:09.203Z,4.57
2019-02-10T23:32:39.747Z,3.60
2019-02-10T23:35:08.740Z,4.83
2019-02-10T23:37:39.303Z,4.13
2019-02-10T23:40:09.345Z,4.03
2019-02-10T23:42:39.708Z,3.93
2019-02-10T23:45:10.515Z,3.50
2019-02-10T23:47:39.649Z,4.10
2019-02-10T23:50:09.697Z,4.13
2019-02-10T23:52:39.259Z,4.03
2019-02-10T23:55:11.099Z,4.23
2019-02-10T23:57:42.226Z,3.97
